Time;durP1;ratioP1;P1;durP2;ratioP2;P2;SDS_P1;SDS_P2;PMS_P1;PMS_P2;Temp;Humidity;BMP_temperature;BMP_pressure;BME280_temperature;BME280_humidity;BME280_pressure;Samples;Min_cycle;Max_cycle;Signal;HPM_P1;HPM_P2
2022/05/15 00:02:31;;;;;;;11.18;5.70;;;;;;;14.73;65.22;99958.78;5115641;28;20042;-89
2022/05/15 00:04:57;;;;;;;11.93;5.20;;;;;;;14.73;64.99;99965.78;5115192;28;20472;-90
2022/05/15 00:07:22;;;;;;;11.07;5.10;;;;;;;14.67;65.02;99959.16;5114935;28;20114;-89
2022/05/15 00:09:47;;;;;;;13.05;5.50;;;;;;;14.60;65.31;99955.19;5115443;28;20016;-90
2022/05/15 00:12:13;;;;;;;17.27;5.50;;;;;;;14.61;65.47;99969.97;5115191;28;20467;-90
2022/05/15 00:14:39;;;;;;;13.38;5.80;;;;;;;14.41;65.88;99936.16;5116401;28;20494;-89
2022/05/15 00:17:05;;;;;;;12.30;5.63;;;;;;;14.56;65.81;99964.16;5115058;28;20023;-89
2022/05/15 00:19:31;;;;;;;9.93;4.70;;;;;;;14.55;66.62;99967.72;5114856;28;20023;-90
2022/05/15 00:21:56;;;;;;;14.73;4.82;;;;;;;14.48;66.54;99961.09;5114903;28;20054;-89
2022/05/15 00:24:22;;;;;;;11.02;4.88;;;;;;;14.52;66.46;99970.50;5114732;28;20100;-90
2022/05/15 00:26:47;;;;;;;12.38;5.05;;;;;;;14.49;66.63;99965.44;5114647;28;20034;-90
2022/05/15 00:29:13;;;;;;;10.90;5.13;;;;;;;14.45;66.73;99961.28;5115021;28;20024;-89
2022/05/15 00:31:38;;;;;;;12.77;4.90;;;;;;;14.44;66.97;99968.28;5092784;28;20166;-90
2022/05/15 00:34:03;;;;;;;11.48;5.07;;;;;;;14.42;67.38;99970.16;5076118;28;20132;-90
2022/05/15 00:36:29;;;;;;;15.60;4.82;;;;;;;14.35;67.50;99965.38;5076031;28;20031;-90
2022/05/15 00:38:55;;;;;;;13.63;4.95;;;;;;;14.32;67.81;99970.78;5076031;28;20073;-89
2022/05/15 00:41:20;;;;;;;9.57;4.82;;;;;;;14.31;68.00;99975.16;5092740;28;20448;-89
2022/05/15 00:43:57;;;;;;;12.43;5.47;;;;;;;14.28;69.11;99980.56;5075934;28;20028;-90
2022/05/15 00:46:22;;;;;;;9.93;4.93;;;;;;;14.30;69.81;99980.50;5075556;28;20032;-89
2022/05/15 00:48:50;;;;;;;10.20;5.13;;;;;;;14.26;69.84;99974.59;5075666;28;20051;-89
2022/05/15 00:51:23;;;;;;;10.45;5.10;;;;;;;14.24;69.17;99973.81;5075579;28;20106;-90
2022/05/15 00:53:53;;;;;;;11.18;5.40;;;;;;;14.22;69.21;99973.06;5075670;28;20032;-89
2022/05/15 00:56:21;;;;;;;12.35;6.13;;;;;;;14.13;69.43;99966.59;5092415;28;20712;-90
2022/05/15 00:58:55;;;;;;;12.80;5.32;;;;;;;14.10;69.85;99963.28;5075722;28;20031;-90
2022/05/15 01:01:21;;;;;;;12.55;5.53;;;;;;;14.13;70.04;99977.06;5075333;28;20032;-89
2022/05/15 01:03:46;;;;;;;15.68;5.53;;;;;;;13.97;70.22;99963.13;5114730;28;20104;-89
2022/05/15 01:06:12;;;;;;;16.30;6.00;;;;;;;14.06;70.57;99978.31;5114017;28;20444;-90
2022/05/15 01:08:37;;;;;;;10.60;5.40;;;;;;;14.03;70.86;99981.13;5113749;28;20801;-90
2022/05/15 01:11:10;;;;;;;11.32;5.53;;;;;;;14.03;71.24;99986.38;5114179;28;20020;-90
2022/05/15 01:13:39;;;;;;;15.93;5.50;;;;;;;13.98;70.94;99983.97;5113290;28;20089;-90
2022/05/15 01:16:05;;;;;;;14.00;5.97;;;;;;;13.90;71.12;99986.19;5091967;28;20070;-90
2022/05/15 01:18:33;;;;;;;13.07;5.45;;;;;;;13.83;70.89;99978.75;5075031;28;20047;-89
2022/05/15 01:21:00;;;;;;;13.10;5.82;;;;;;;13.81;71.67;99981.44;5075098;28;20028;-89
2022/05/15 01:23:29;;;;;;;13.10;5.72;;;;;;;13.59;72.04;99958.22;5092476;28;20102;-90
2022/05/15 01:25:57;;;;;;;13.07;5.55;;;;;;;13.71;72.29;99988.97;5092496;28;20070;-89
2022/05/15 01:28:26;;;;;;;12.23;5.43;;;;;;;13.67;72.56;99989.22;5075307;28;20040;-88
2022/05/15 01:30:59;;;;;;;10.45;5.18;;;;;;;13.62;73.06;99991.25;5092047;28;20089;-89
2022/05/15 01:33:25;;;;;;;13.63;5.80;;;;;;;13.51;73.04;99970.88;5074996;28;20058;-89
2022/05/15 01:35:51;;;;;;;12.57;6.20;;;;;;;13.52;73.48;99988.25;5075304;28;20567;-90
2022/05/15 01:38:18;;;;;;;13.32;6.07;;;;;;;13.42;73.98;99985.28;5075307;28;20514;-90
2022/05/15 01:40:44;;;;;;;16.50;6.07;;;;;;;13.36;74.68;99984.78;5074761;28;20056;-88
2022/05/15 01:43:10;;;;;;;17.75;5.95;;;;;;;13.38;74.51;99990.75;5092009;28;20699;-90
2022/05/15 01:45:35;;;;;;;13.27;5.55;;;;;;;13.33;74.90;99991.00;5074926;28;20027;-89
2022/05/15 01:48:01;;;;;;;10.32;5.65;;;;;;;13.27;75.14;99985.25;5074567;28;20052;-89
2022/05/15 01:50:28;;;;;;;13.02;6.32;;;;;;;13.23;75.73;99990.66;5074844;28;20040;-90
2022/05/15 01:52:54;;;;;;;14.77;5.90;;;;;;;13.21;75.61;99995.06;5081964;28;20046;-89
2022/05/15 01:55:19;;;;;;;14.60;5.47;;;;;;;13.17;75.93;99987.47;5113743;28;20019;-89
2022/05/15 01:57:45;;;;;;;14.27;5.55;;;;;;;13.18;76.61;99991.75;5112897;28;20391;-90
2022/05/15 02:00:15;;;;;;;13.02;5.20;;;;;;;13.12;77.04;99976.41;5071101;28;20036;-90
2022/05/15 02:02:41;;;;;;;12.02;6.00;;;;;;;13.13;76.45;99978.94;5054196;28;20045;-90
2022/05/15 02:05:07;;;;;;;12.95;5.63;;;;;;;13.21;76.69;99992.47;5071124;28;20448;-90
2022/05/15 02:07:33;;;;;;;11.93;5.70;;;;;;;13.08;76.53;99980.09;5070921;28;20070;-89
2022/05/15 02:09:58;;;;;;;10.63;5.28;;;;;;;13.15;76.59;99984.94;5071205;28;20036;-89
2022/05/15 02:12:24;;;;;;;13.32;5.50;;;;;;;13.17;76.84;99990.94;5070845;28;20616;-90
2022/05/15 02:14:49;;;;;;;11.05;5.40;;;;;;;13.18;77.42;99992.59;5070993;28;20041;-90
2022/05/15 02:17:15;;;;;;;16.23;5.38;;;;;;;13.19;77.28;99986.47;5071250;28;20028;-90
2022/05/15 02:19:40;;;;;;;15.48;5.50;;;;;;;13.23;76.82;99990.66;5070563;28;20028;-90
2022/05/15 02:22:05;;;;;;;13.63;6.13;;;;;;;13.27;77.51;99993.94;5070950;28;20037;-90
2022/05/15 02:24:31;;;;;;;12.75;5.78;;;;;;;13.25;77.29;99995.78;5052896;28;20039;-89
2022/05/15 02:26:57;;;;;;;12.25;5.70;;;;;;;13.23;77.12;99995.88;5070740;28;20051;-89
2022/05/15 02:29:22;;;;;;;14.55;6.05;;;;;;;13.16;76.97;99986.63;5070649;28;20238;-90
2022/05/15 02:31:47;;;;;;;14.10;5.13;;;;;;;12.99;76.89;99979.66;5103022;28;20092;-89
2022/05/15 02:34:13;;;;;;;10.40;5.15;;;;;;;13.05;77.15;100002.00;5112507;28;20020;-89
2022/05/15 02:36:38;;;;;;;11.07;6.07;;;;;;;13.00;77.74;99996.19;5111925;28;20491;-89
2022/05/15 02:39:04;;;;;;;11.20;4.97;;;;;;;12.97;77.59;100002.41;5112574;28;20032;-90
2022/05/15 02:41:30;;;;;;;11.60;4.95;;;;;;;12.84;77.81;99995.25;5112070;28;20091;-89
2022/05/15 02:43:56;;;;;;;10.93;5.65;;;;;;;12.78;78.00;99998.19;5112381;28;20051;-89
2022/05/15 02:46:22;;;;;;;12.35;5.57;;;;;;;12.74;78.05;99992.28;5112243;28;20514;-89
2022/05/15 02:51:31;;;;;;;9.82;5.75;;;;;;;12.74;78.39;100016.63;5113282;28;20604;-89
2022/05/15 02:53:56;;;;;;;10.43;5.07;;;;;;;12.68;78.01;100010.84;5113374;27;20023;-90
2022/05/15 02:56:25;;;;;;;11.70;5.65;;;;;;;12.66;78.91;100013.56;5112006;28;20046;-90
2022/05/15 02:58:51;;;;;;;14.90;6.28;;;;;;;12.48;78.54;99993.56;5090163;28;20122;-89
2022/05/15 03:01:17;;;;;;;10.40;6.03;;;;;;;12.55;78.47;100022.84;5073314;28;20078;-90
2022/05/15 03:03:43;;;;;;;15.25;6.35;;;;;;;12.44;79.37;100005.94;5073068;28;20036;-89
2022/05/15 03:06:10;;;;;;;11.32;5.35;;;;;;;12.45;78.78;100015.44;5073507;28;20028;-89
2022/05/15 03:08:39;;;;;;;13.35;5.22;;;;;;;12.34;78.80;100006.44;5072858;28;20048;-90
2022/05/15 03:11:04;;;;;;;12.75;6.05;;;;;;;12.35;80.11;100013.38;5090258;28;20028;-88
2022/05/15 03:13:30;;;;;;;14.90;6.88;;;;;;;12.34;80.80;100015.09;5072983;28;20047;-90
2022/05/15 03:15:56;;;;;;;16.17;6.85;;;;;;;12.38;80.87;100024.50;5073160;28;20035;-89
2022/05/15 03:18:21;;;;;;;14.43;6.40;;;;;;;12.35;80.68;100024.66;5073140;28;20139;-90
2022/05/15 03:20:47;;;;;;;14.50;6.43;;;;;;;12.33;81.73;100026.50;5072873;28;20047;-88
2022/05/15 03:23:13;;;;;;;12.82;7.43;;;;;;;12.34;81.80;100029.94;5090150;28;20044;-89
2022/05/15 03:25:39;;;;;;;17.38;8.05;;;;;;;12.29;81.98;100024.09;5072937;28;20028;-90
2022/05/15 03:28:09;;;;;;;14.02;7.07;;;;;;;12.34;81.96;100036.00;5073038;28;20059;-90
2022/05/15 03:30:36;;;;;;;13.80;6.03;;;;;;;12.23;81.82;100015.63;5108007;28;20042;-89
2022/05/15 03:33:02;;;;;;;12.07;6.00;;;;;;;12.29;82.22;100038.00;5111679;28;20035;-90
2022/05/15 03:35:28;;;;;;;19.90;6.78;;;;;;;12.34;81.89;100043.84;5111113;28;20107;-90
2022/05/15 03:37:53;;;;;;;17.98;6.60;;;;;;;12.35;81.53;100050.78;5111316;28;20118;-90
2022/05/15 03:40:18;;;;;;;12.48;5.78;;;;;;;12.33;81.68;100044.78;5111379;28;20062;-89
2022/05/15 03:42:44;;;;;;;13.40;6.32;;;;;;;12.33;81.79;100047.38;5112506;28;20509;-90
2022/05/15 03:45:09;;;;;;;14.52;6.88;;;;;;;12.37;81.37;100054.16;5112688;28;20361;-89
2022/05/15 03:47:36;;;;;;;15.38;6.95;;;;;;;12.39;80.53;100046.25;5110990;28;20078;-89
2022/05/15 03:50:07;;;;;;;11.50;5.88;;;;;;;12.35;80.78;100036.88;5111437;28;20024;-90
2022/05/15 03:52:33;;;;;;;12.32;5.32;;;;;;;12.42;79.87;100043.47;5111360;28;20032;-89
2022/05/15 03:54:58;;;;;;;14.10;6.45;;;;;;;12.47;80.36;100047.59;5111418;28;20600;-90
2022/05/15 03:57:24;;;;;;;11.95;5.30;;;;;;;12.62;80.07;100051.22;5111283;28;20031;-89
2022/05/15 03:59:49;;;;;;;12.38;5.18;;;;;;;12.71;79.53;100048.16;5111231;28;20388;-89
2022/05/15 04:02:15;;;;;;;12.50;5.80;;;;;;;12.95;78.64;100066.16;5111391;28;20035;-89
2022/05/15 04:04:41;;;;;;;10.98;5.47;;;;;;;13.17;77.29;100058.09;5111103;28;20377;-90
2022/05/15 04:07:06;;;;;;;10.90;5.90;;;;;;;13.39;75.37;100045.63;5111139;28;20042;-89
2022/05/15 04:09:33;;;;;;;10.75;5.28;;;;;;;13.81;73.64;100065.22;5110907;28;20089;-89
2022/05/15 04:11:59;;;;;;;12.82;5.43;;;;;;;14.12;71.67;100066.22;5111035;28;20396;-90
2022/05/15 04:14:25;;;;;;;9.48;4.78;;;;;;;14.34;70.35;100066.72;5111286;28;20027;-90
2022/05/15 04:16:50;;;;;;;13.70;5.18;;;;;;;14.54;68.48;100068.25;5110803;28;20043;-90
2022/05/15 04:19:16;;;;;;;16.05;5.63;;;;;;;14.70;66.86;100071.69;5110976;28;20449;-90
2022/05/15 04:21:41;;;;;;;11.25;5.40;;;;;;;14.85;65.65;100067.34;5112050;28;20028;-89
2022/05/15 04:24:13;;;;;;;7.65;4.47;;;;;;;15.02;64.91;100058.50;5110952;28;20114;-89
2022/05/15 04:26:41;;;;;;;10.45;4.82;;;;;;;15.33;63.63;100073.28;5110693;28;20096;-89
2022/05/15 04:29:07;;;;;;;9.15;5.30;;;;;;;15.56;63.26;100076.31;5111198;28;20488;-89
2022/05/15 04:31:36;;;;;;;11.52;4.68;;;;;;;15.71;61.74;100067.53;5110651;28;20031;-89
2022/05/15 04:34:03;;;;;;;10.27;4.72;;;;;;;15.91;60.77;100064.53;5110825;28;20032;-90
2022/05/15 04:36:29;;;;;;;11.15;4.63;;;;;;;16.16;59.64;100073.50;5110794;28;20024;-89
2022/05/15 04:38:56;;;;;;;11.82;4.43;;;;;;;16.38;58.45;100073.81;5111588;28;20073;-90
2022/05/15 04:41:22;;;;;;;12.27;4.95;;;;;;;16.69;57.38;100072.69;5110812;28;20460;-90
2022/05/15 04:43:48;;;;;;;9.02;4.25;;;;;;;16.96;57.04;100080.59;5110513;28;20031;-89
2022/05/15 04:46:14;;;;;;;13.65;5.05;;;;;;;17.21;55.64;100077.16;5112157;28;20073;-89
2022/05/15 04:48:40;;;;;;;9.63;5.00;;;;;;;17.37;54.67;100081.41;5113538;28;20044;-90
2022/05/15 04:51:05;;;;;;;11.48;5.47;;;;;;;17.46;54.52;100086.03;5114198;28;20024;-89
2022/05/15 04:53:32;;;;;;;11.70;4.65;;;;;;;17.52;52.92;100088.25;5115476;28;20106;-90
2022/05/15 04:55:58;;;;;;;8.35;4.22;;;;;;;17.30;53.50;100086.22;5114208;28;20015;-89
2022/05/15 04:58:24;;;;;;;12.50;4.90;;;;;;;17.45;53.73;100095.72;5114291;28;20083;-90
2022/05/15 05:00:50;;;;;;;11.38;4.00;;;;;;;17.71;52.50;100088.66;5114184;28;20031;-90
2022/05/15 05:03:16;;;;;;;10.68;4.57;;;;;;;18.11;51.44;100072.72;5115699;28;20028;-90
2022/05/15 05:05:42;;;;;;;9.93;3.63;;;;;;;18.51;49.75;100083.06;5114023;28;20121;-90
2022/05/15 05:08:09;;;;;;;8.48;4.22;;;;;;;18.73;48.95;100094.69;5114081;28;20034;-90
2022/05/15 05:10:35;;;;;;;7.40;3.47;;;;;;;18.43;48.41;100094.16;5114108;28;20031;-90
2022/05/15 05:13:00;;;;;;;8.05;3.75;;;;;;;18.34;49.45;100107.16;5114219;28;20032;-90
2022/05/15 05:15:26;;;;;;;9.98;3.85;;;;;;;18.43;50.12;100104.69;5114211;28;20057;-90
2022/05/15 05:17:51;;;;;;;11.27;4.88;;;;;;;18.84;49.54;100102.69;5113910;28;20028;-90
2022/05/15 05:20:16;;;;;;;7.22;3.65;;;;;;;19.34;47.82;100116.53;5114221;28;20023;-90
2022/05/15 05:22:42;;;;;;;11.43;4.20;;;;;;;20.20;46.75;100121.34;5113659;28;20038;-91
2022/05/15 05:25:09;;;;;;;12.57;4.25;;;;;;;21.54;42.89;100119.25;5114237;28;20061;-90
2022/05/15 05:27:36;;;;;;;8.95;3.47;;;;;;;22.10;40.41;100124.97;5113942;28;20467;-90
2022/05/15 05:30:04;;;;;;;11.40;3.58;;;;;;;21.95;40.76;100128.09;5113839;28;20027;-90
2022/05/15 05:32:30;;;;;;;9.13;3.88;;;;;;;21.56;40.12;100123.44;5113905;28;20040;-90
2022/05/15 05:34:55;;;;;;;8.40;3.67;;;;;;;21.00;41.03;100128.16;5113709;28;20089;-90
2022/05/15 05:37:21;;;;;;;10.60;4.00;;;;;;;20.54;42.48;100114.22;5113698;28;20032;-90
2022/05/15 05:39:46;;;;;;;9.10;3.40;;;;;;;20.58;42.52;100128.88;5113736;28;20080;-90
2022/05/15 05:42:12;;;;;;;11.13;4.50;;;;;;;21.30;42.11;100120.31;5114952;28;20464;-91
2022/05/15 05:44:37;;;;;;;8.27;3.40;;;;;;;22.74;38.94;100130.88;5113314;28;20027;-83
2022/05/15 05:47:03;;;;;;;9.85;3.30;;;;;;;23.21;37.67;100134.56;5114199;28;20482;-83
2022/05/15 05:49:29;;;;;;;8.48;3.30;;;;;;;22.62;38.33;100136.31;5113887;27;20043;-83
2022/05/15 05:51:54;;;;;;;8.57;3.65;;;;;;;22.28;38.66;100127.00;5112403;28;20115;-83
2022/05/15 05:54:19;;;;;;;7.68;3.38;;;;;;;22.03;38.63;100133.59;5112972;28;20027;-83
2022/05/15 05:56:45;;;;;;;7.18;2.95;;;;;;;21.88;38.86;100139.25;5112572;28;20062;-84
2022/05/15 05:59:10;;;;;;;8.15;4.35;;;;;;;22.20;38.74;100140.09;5112624;28;20032;-84
2022/05/15 06:01:36;;;;;;;7.55;3.03;;;;;;;23.40;35.78;100141.69;5113910;28;20027;-84
2022/05/15 06:06:45;;;;;;;6.93;3.38;;;;;;;24.68;33.72;100157.09;5113788;28;20057;-83
2022/05/15 06:09:10;;;;;;;8.27;3.42;;;;;;;24.25;34.39;100154.06;5114063;28;20391;-84
2022/05/15 06:11:36;;;;;;;5.65;3.05;;;;;;;24.02;33.62;100142.13;5113713;28;20023;-83
2022/05/15 06:14:01;;;;;;;7.53;2.92;;;;;;;23.75;35.42;100156.22;5113396;28;20027;-84
2022/05/15 06:16:27;;;;;;;4.47;2.60;;;;;;;24.43;34.04;100148.00;5113654;28;20029;-84
2022/05/15 06:18:52;;;;;;;6.35;2.60;;;;;;;25.38;33.24;100142.97;5113203;28;20024;-85
2022/05/15 06:21:17;;;;;;;8.15;2.90;;;;;;;25.34;32.04;100160.28;5112451;28;20114;-84
2022/05/15 06:23:43;;;;;;;4.70;2.58;;;;;;;24.88;32.96;100154.16;5112087;28;20419;-84
2022/05/15 06:26:08;;;;;;;8.43;3.20;;;;;;;24.69;32.59;100140.94;5112405;28;20122;-85
2022/05/15 06:28:34;;;;;;;7.13;3.00;;;;;;;24.76;33.34;100159.84;5112237;28;20027;-84
2022/05/15 06:31:01;;;;;;;5.22;3.13;;;;;;;25.06;32.76;100163.97;5111781;28;20078;-84
2022/05/15 06:33:26;;;;;;;8.43;2.97;;;;;;;25.62;31.59;100162.81;5113261;28;20039;-85
2022/05/15 06:35:52;;;;;;;7.00;2.83;;;;;;;26.76;30.08;100154.56;5112909;28;20027;-84
2022/05/15 06:38:17;;;;;;;7.82;3.15;;;;;;;28.32;27.97;100161.50;5113327;28;20147;-85
2022/05/15 06:40:42;;;;;;;6.65;3.00;;;;;;;28.58;26.63;100158.56;5113283;28;20460;-85
2022/05/15 06:43:09;;;;;;;5.50;2.72;;;;;;;28.59;26.99;100153.03;5111807;28;20553;-85
2022/05/15 06:45:35;;;;;;;6.85;3.30;;;;;;;29.57;26.48;100151.50;5111737;28;20442;-85
2022/05/15 06:48:01;;;;;;;5.13;2.03;;;;;;;30.16;24.85;100161.50;5111262;28;20138;-85
2022/05/15 06:50:26;;;;;;;7.00;2.45;;;;;;;29.33;25.25;100158.75;5111623;28;20106;-84
2022/05/15 06:52:52;;;;;;;6.65;2.78;;;;;;;28.94;25.88;100172.25;5111434;28;20617;-85
2022/05/15 06:55:20;;;;;;;5.32;2.35;;;;;;;28.43;25.79;100154.94;5112910;28;20028;-85
2022/05/15 06:57:47;;;;;;;4.82;2.25;;;;;;;27.89;26.32;100163.63;5112407;28;20031;-85
2022/05/15 07:00:25;;;;;;;5.03;2.22;;;;;;;27.59;27.63;100157.13;5112846;28;20019;-91
2022/05/15 07:02:51;;;;;;;6.03;2.65;;;;;;;27.65;27.24;100172.53;5053530;28;20040;-91
2022/05/15 07:05:31;;;;;;;4.50;2.30;;;;;;;27.68;27.14;100169.50;5053691;28;20036;-91
2022/05/15 07:07:56;;;;;;;6.00;2.13;;;;;;;27.35;27.56;100171.38;5070290;28;20040;-91
2022/05/15 07:10:22;;;;;;;8.55;2.83;;;;;;;27.84;27.93;100166.00;5053159;28;20028;-91
2022/05/15 07:12:48;;;;;;;6.22;2.20;;;;;;;28.21;26.08;100167.22;5070071;28;20550;-90
2022/05/15 07:15:14;;;;;;;6.78;2.08;;;;;;;28.17;26.49;100176.63;5070333;28;20024;-90
2022/05/15 07:17:39;;;;;;;6.13;2.40;;;;;;;28.39;26.38;100170.53;5070450;28;20090;-91
2022/05/15 07:20:05;;;;;;;4.68;2.22;;;;;;;28.93;26.96;100169.75;5069878;28;20029;-91
2022/05/15 07:22:31;;;;;;;4.20;2.03;;;;;;;29.74;25.69;100170.97;5069741;28;20127;-90
2022/05/15 07:24:57;;;;;;;7.50;2.17;;;;;;;30.40;24.43;100160.34;5070093;28;20032;-91
2022/05/15 07:27:22;;;;;;;6.68;2.05;;;;;;;31.27;23.44;100149.53;5070065;28;20028;-92
2022/05/15 07:29:48;;;;;;;5.20;2.25;;;;;;;32.09;22.75;100165.06;5052990;28;20082;-91
2022/05/15 07:32:13;;;;;;;4.82;2.67;;;;;;;33.14;21.15;100169.19;5049803;28;20032;-91
2022/05/15 07:34:40;;;;;;;4.65;2.20;;;;;;;33.72;20.65;100168.63;5083908;28;20071;-90
2022/05/15 07:37:06;;;;;;;5.60;2.30;;;;;;;33.98;19.98;100159.66;5110126;28;20036;-89
2022/05/15 07:39:31;;;;;;;5.93;2.17;;;;;;;34.33;20.30;100154.75;5093423;28;20039;-91
2022/05/15 07:41:57;;;;;;;5.82;2.22;;;;;;;34.78;19.66;100164.75;5092877;28;20148;-91
2022/05/15 07:44:23;;;;;;;5.63;2.35;;;;;;;34.67;19.57;100167.09;5093169;28;20032;-91
2022/05/15 07:46:48;;;;;;;4.20;2.10;;;;;;;34.39;19.40;100162.00;5093227;28;20066;-90
2022/05/15 07:49:14;;;;;;;4.82;2.25;;;;;;;33.03;20.48;100161.72;5093246;28;20450;-91
2022/05/15 07:51:44;;;;;;;5.68;2.08;;;;;;;32.21;21.60;100171.56;5093262;28;20199;-91
2022/05/15 07:54:14;;;;;;;6.78;2.55;;;;;;;31.79;22.19;100159.06;5093221;28;20078;-91
2022/05/15 07:56:40;;;;;;;6.97;2.40;;;;;;;31.42;22.34;100157.53;5093340;28;20019;-91
2022/05/15 07:59:05;;;;;;;4.10;2.17;;;;;;;31.47;23.04;100158.59;5092616;28;20050;-91
2022/05/15 08:01:31;;;;;;;4.53;2.28;;;;;;;31.64;22.33;100155.63;5093189;28;20036;-91
2022/05/15 08:03:56;;;;;;;4.72;1.90;;;;;;;31.25;22.42;100148.88;5106365;28;20473;-91
2022/05/15 08:09:07;;;;;;;5.60;2.22;;;;;;;30.85;22.64;100150.38;5111612;28;20066;-90
2022/05/15 08:11:33;;;;;;;6.85;2.17;;;;;;;31.05;22.82;100146.00;5111369;28;20084;-91
2022/05/15 08:14:01;;;;;;;5.35;2.33;;;;;;;30.08;24.50;100154.31;5111221;28;20106;-89
2022/05/15 08:16:27;;;;;;;5.97;2.13;;;;;;;30.17;23.66;100155.94;5110774;28;20039;-89
2022/05/15 08:24:21;;;;;;;5.13;2.03;;;;;;;25.37;31.46;100164.47;5116165;28;20047;-79
2022/05/15 08:26:47;;;;;;;4.60;1.90;;;;;;;24.79;32.76;100163.06;5115605;28;20024;-77
2022/05/15 08:29:13;;;;;;;6.25;2.30;;;;;;;24.16;32.08;100162.94;5115802;28;20080;-86
2022/05/15 08:31:39;;;;;;;6.50;2.80;;;;;;;23.36;33.55;100143.78;5114393;28;20505;-81
2022/05/15 08:34:06;;;;;;;7.68;2.50;;;;;;;23.02;35.82;100158.50;5114070;28;20031;-83
2022/05/15 08:36:32;;;;;;;9.18;2.92;;;;;;;22.73;34.18;100150.47;5114154;28;20038;-84
2022/05/15 08:38:58;;;;;;;6.60;2.90;;;;;;;22.40;34.86;100158.63;5114110;28;20388;-84
2022/05/15 08:41:35;;;;;;;5.80;2.55;;;;;;;22.06;35.81;100154.53;5114282;28;20035;-84
2022/05/15 08:44:21;;;;;;;6.28;2.28;;;;;;;21.65;35.95;100148.31;5115351;28;20084;-83
2022/05/15 08:47:09;;;;;;;4.13;2.05;;;;;;;21.41;36.07;100153.91;5114199;28;20389;-84
2022/05/15 08:49:51;;;;;;;9.43;2.72;;;;;;;20.87;37.03;100146.88;5114297;28;20048;-84
2022/05/15 08:52:32;;;;;;;5.97;2.33;;;;;;;20.83;39.53;100164.81;5114301;28;20123;-83
2022/05/15 08:55:03;;;;;;;5.57;2.55;;;;;;;20.99;39.59;100148.50;5113726;28;20092;-84
2022/05/15 08:57:56;;;;;;;4.35;2.10;;;;;;;21.10;40.65;100147.59;5115144;28;20024;-86
2022/05/15 09:00:44;;;;;;;3.70;2.17;;;;;;;21.18;39.37;100163.72;5114065;28;20039;-83
2022/05/15 09:03:19;;;;;;;4.90;2.08;;;;;;;21.15;38.55;100156.88;5113010;28;20422;-83
2022/05/15 09:06:05;;;;;;;8.32;3.05;;;;;;;21.18;38.64;100169.84;5114985;28;20039;-83
2022/05/15 09:09:07;;;;;;;10.80;2.00;;;;;;;21.06;37.54;100162.06;5115034;28;20073;-83
2022/05/15 09:11:55;;;;;;;5.50;2.45;;;;;;;20.85;39.60;100168.16;5113707;28;20089;-83
2022/05/15 09:14:41;;;;;;;5.13;2.05;;;;;;;20.71;39.03;100170.25;5113797;28;20027;-83
2022/05/15 09:17:30;;;;;;;4.70;2.72;;;;;;;20.71;40.06;100172.91;5054474;28;20028;-83
2022/05/15 09:19:59;;;;;;;7.82;2.80;;;;;;;20.62;39.24;100172.66;5054838;28;20029;-83
2022/05/15 09:22:36;;;;;;;6.25;2.72;;;;;;;20.65;40.97;100163.66;5071606;28;20040;-83
2022/05/15 09:25:07;;;;;;;4.75;2.42;;;;;;;20.55;38.92;100170.63;5054524;28;20497;-84
2022/05/15 09:27:32;;;;;;;3.38;2.10;;;;;;;20.51;39.25;100163.91;5051420;28;20045;-82
2022/05/15 09:30:08;;;;;;;5.53;2.58;;;;;;;20.64;38.72;100160.13;5034538;28;20033;-84
2022/05/15 09:32:41;;;;;;;5.15;2.45;;;;;;;20.73;38.43;100166.53;5011046;28;20125;-83
2022/05/15 09:35:12;;;;;;;3.45;2.08;;;;;;;20.74;38.18;100164.72;4993410;28;20452;-84
2022/05/15 09:40:39;;;;;;;6.82;2.60;;;;;;;20.31;37.12;100166.31;4992345;28;20169;-84
2022/05/15 09:45:54;;;;;;;5.80;2.00;;;;;;;19.93;39.54;100159.56;5011733;28;20121;-83
2022/05/15 09:48:23;;;;;;;2.33;1.90;;;;;;;19.93;37.46;100149.00;5022804;28;20054;-84
2022/05/15 09:50:48;;;;;;;3.33;1.90;;;;;;;20.01;37.50;100169.53;5031175;28;20595;-83
2022/05/15 09:53:26;;;;;;;4.25;1.95;;;;;;;20.02;37.94;100159.81;5014145;28;20045;-84
2022/05/15 09:56:02;;;;;;;3.58;2.00;;;;;;;20.16;40.29;100164.84;5030721;28;20041;-84
2022/05/15 09:58:44;;;;;;;4.22;2.00;;;;;;;20.30;40.22;100161.94;5031012;28;20037;-84
2022/05/15 10:01:41;;;;;;;4.20;2.72;;;;;;;20.28;37.17;100166.53;5013670;28;20473;-85
2022/05/15 10:04:28;;;;;;;4.53;3.00;;;;;;;20.27;38.79;100164.88;4996230;28;20137;-85
2022/05/15 10:06:57;;;;;;;3.58;2.00;;;;;;;20.32;38.41;100156.56;4991981;28;20039;-88
2022/05/15 10:09:37;;;;;;;4.20;1.73;;;;;;;20.47;37.93;100154.50;4992337;28;20543;-88
2022/05/15 10:12:23;;;;;;;4.60;2.10;;;;;;;20.58;37.71;100165.94;4975158;28;20039;-88
2022/05/15 10:14:54;;;;;;;5.18;2.22;;;;;;;20.69;37.58;100159.78;4974977;28;20049;-86
2022/05/15 10:17:22;;;;;;;3.13;1.67;;;;;;;20.76;36.23;100157.47;4975205;28;20595;-87
2022/05/15 10:19:55;;;;;;;5.35;2.05;;;;;;;20.67;37.08;100153.75;4991641;28;20466;-87
2022/05/15 10:22:49;;;;;;;2.28;1.50;;;;;;;20.63;33.80;100160.28;4991531;28;20042;-86
2022/05/15 10:25:20;;;;;;;2.83;1.45;;;;;;;20.58;34.33;100163.28;4974898;28;20262;-87
2022/05/15 10:27:50;;;;;;;2.78;1.58;;;;;;;20.56;34.91;100159.06;4975082;28;20046;-87
2022/05/15 10:30:22;;;;;;;1.77;1.60;;;;;;;20.39;33.55;100150.66;4990794;28;20045;-86
2022/05/15 10:33:03;;;;;;;2.80;1.60;;;;;;;20.20;35.83;100139.84;4975048;28;20176;-87
2022/05/15 10:35:42;;;;;;;4.18;1.70;;;;;;;20.15;33.98;100160.53;4974874;28;20515;-83
2022/05/15 10:38:33;;;;;;;4.65;1.90;;;;;;;19.84;34.34;100156.78;4990508;28;20035;-82
2022/05/15 10:41:14;;;;;;;1.70;1.35;;;;;;;19.78;34.12;100159.91;5015340;28;20175;-82
2022/05/15 10:44:06;;;;;;;2.20;1.50;;;;;;;19.65;35.11;100144.16;5053043;28;20055;-86
2022/05/15 10:46:44;;;;;;;2.20;1.45;;;;;;;19.74;34.20;100146.06;5092471;28;20032;-87
2022/05/15 10:49:27;;;;;;;4.72;1.70;;;;;;;19.63;33.21;100149.53;5092572;28;20040;-86
2022/05/15 10:52:10;;;;;;;2.45;1.50;;;;;;;19.55;33.87;100153.69;5091114;28;20500;-85
2022/05/15 10:58:00;;;;;;;4.32;1.67;;;;;;;19.66;34.79;100137.88;5092921;28;20039;-87
2022/05/15 11:01:00;;;;;;;3.13;1.52;;;;;;;19.61;34.79;100124.19;5092926;28;20385;-84
2022/05/15 11:03:53;;;;;;;3.13;1.65;;;;;;;19.68;35.45;100112.22;5088091;28;20032;-84
2022/05/15 11:06:32;;;;;;;4.05;1.75;;;;;;;19.78;34.90;100129.03;5106683;28;20029;-84
2022/05/15 11:09:09;;;;;;;4.78;1.70;;;;;;;19.66;34.42;100132.59;5109619;28;20156;-84
2022/05/15 11:12:02;;;;;;;3.03;1.30;;;;;;;19.55;34.92;100129.91;5108677;28;20028;-83
2022/05/15 11:14:49;;;;;;;2.25;1.58;;;;;;;19.58;34.56;100116.47;5108839;28;20092;-83
2022/05/15 11:17:21;;;;;;;2.75;1.63;;;;;;;19.65;33.91;100121.19;5110256;28;20024;-83
2022/05/15 11:19:47;;;;;;;2.72;1.65;;;;;;;19.60;35.00;100114.56;5108878;28;20038;-84
2022/05/15 11:22:25;;;;;;;3.47;1.75;;;;;;;19.68;34.95;100113.03;5109769;28;20015;-84
2022/05/15 11:25:00;;;;;;;2.65;1.70;;;;;;;19.75;36.57;100108.09;5109181;28;20055;-83
2022/05/15 11:27:30;;;;;;;3.95;1.95;;;;;;;19.82;34.73;100096.09;5110887;28;20034;-83
2022/05/15 11:30:00;;;;;;;2.58;1.70;;;;;;;19.89;34.24;100102.59;5112312;28;20027;-82
2022/05/15 11:32:33;;;;;;;4.13;1.58;;;;;;;19.75;33.88;100094.88;5111786;28;20027;-83
2022/05/15 11:35:17;;;;;;;6.50;1.73;;;;;;;19.86;33.53;100105.47;5110484;28;20081;-83
2022/05/15 11:38:08;;;;;;;1.73;1.30;;;;;;;19.81;32.26;100102.34;5111771;28;20027;-83
2022/05/15 11:40:36;;;;;;;;;;;;;;;19.75;32.33;100099.34;5112538;28;20478;-83
2022/05/15 11:43:26;;;;;;;4.47;1.48;;;;;;;19.76;32.15;100096.56;5110511;28;19918;-83
2022/05/15 11:45:58;;;;;;;4.10;1.80;;;;;;;19.72;32.16;100094.28;5111655;28;20606;-83
2022/05/15 11:48:39;;;;;;;3.97;1.75;;;;;;;19.70;32.25;100102.34;5112016;28;20039;-83
2022/05/15 11:51:24;;;;;;;3.00;2.00;;;;;;;19.60;31.45;100088.13;5111678;28;20019;-84
2022/05/15 11:54:33;;;;;;;4.43;1.63;;;;;;;19.64;32.20;100090.47;5110715;28;20429;-83
2022/05/15 11:57:00;;;;;;;11.57;6.43;;;;;;;19.75;33.58;100086.13;5014580;28;20072;-83
2022/05/15 11:59:27;;;;;;;6.45;2.40;;;;;;;19.91;31.95;100092.75;5032906;28;20499;-83